Terminal Aerodrome Forecast
Issued by NWS Atlanta, GA

Home | Current Version | Previous Version | Text Only | Print | Product List | Glossary On
Versions: 1 2 3 4 5 6 7 8 9 10 11 12 13 14 15 16 17 18 19 20 21 22 23 24 25 26 27 28 29 30 31 32 33 34 35 36 37 38 39 40 41
000
FTUS42 KFFC 121100
TAFATL
TAF
KATL 121121Z 1212/1318 VRB03KT 5SM BR SCT006
      TEMPO 1212/1214 BKN006
     FM121400 12006KT P6SM SCT040
     FM130100 12004KT P6SM FEW250
     FM131400 16006KT P6SM SCT045=

USA.gov is the U.S. government's official web portal to all federal, state and local government web resources and services.